sensor_id;sensor_type;location;lat;lon;timestamp;temperature;humidity
20398;DHT22;10358;49.590;11.030;2023-04-08T00:00:56;5.60;99.90
20398;DHT22;10358;49.590;11.030;2023-04-08T00:03:22;5.60;99.90
20398;DHT22;10358;49.590;11.030;2023-04-08T00:05:47;5.60;99.90
20398;DHT22;10358;49.590;11.030;2023-04-08T00:08:13;5.50;99.90
20398;DHT22;10358;49.590;11.030;2023-04-08T00:10:39;5.50;99.90
20398;DHT22;10358;49.590;11.030;2023-04-08T00:13:04;5.50;99.90
20398;DHT22;10358;49.590;11.030;2023-04-08T00:15:30;5.50;99.90
20398;DHT22;10358;49.590;11.030;2023-04-08T00:17:55;5.50;99.90
20398;DHT22;10358;49.590;11.030;2023-04-08T00:20:22;5.40;99.90
20398;DHT22;10358;49.590;11.030;2023-04-08T00:22:48;5.30;99.90
20398;DHT22;10358;49.590;11.030;2023-04-08T00:25:14;5.20;99.90
20398;DHT22;10358;49.590;11.030;2023-04-08T00:27:39;5.20;99.90
20398;DHT22;10358;49.590;11.030;2023-04-08T00:30:05;5.10;99.90
20398;DHT22;10358;49.590;11.030;2023-04-08T00:32:31;5.00;99.90
20398;DHT22;10358;49.590;11.030;2023-04-08T00:34:57;5.00;99.90
20398;DHT22;10358;49.590;11.030;2023-04-08T00:37:23;4.90;99.90
20398;DHT22;10358;49.590;11.030;2023-04-08T00:39:49;4.90;99.90
20398;DHT22;10358;49.590;11.030;2023-04-08T00:42:16;4.80;99.90
20398;DHT22;10358;49.590;11.030;2023-04-08T00:44:41;4.80;99.90
20398;DHT22;10358;49.590;11.030;2023-04-08T00:47:11;4.70;99.90
20398;DHT22;10358;49.590;11.030;2023-04-08T00:49:37;4.70;99.90
20398;DHT22;10358;49.590;11.030;2023-04-08T00:52:03;4.60;99.90
20398;DHT22;10358;49.590;11.030;2023-04-08T00:54:30;4.50;99.90
20398;DHT22;10358;49.590;11.030;2023-04-08T00:56:56;4.40;99.90
20398;DHT22;10358;49.590;11.030;2023-04-08T00:59:24;4.40;99.90
20398;DHT22;10358;49.590;11.030;2023-04-08T01:05:05;4.30;99.90
20398;DHT22;10358;49.590;11.030;2023-04-08T01:07:30;4.30;99.90
20398;DHT22;10358;49.590;11.030;2023-04-08T01:10:01;4.30;99.90
20398;DHT22;10358;49.590;11.030;2023-04-08T01:12:31;4.30;99.90
20398;DHT22;10358;49.590;11.030;2023-04-08T01:15:04;4.30;99.90
20398;DHT22;10358;49.590;11.030;2023-04-08T01:17:31;4.30;99.90
20398;DHT22;10358;49.590;11.030;2023-04-08T01:19:59;4.30;99.90
20398;DHT22;10358;49.590;11.030;2023-04-08T01:25:20;4.30;99.90
20398;DHT22;10358;49.590;11.030;2023-04-08T01:27:47;4.30;99.90
20398;DHT22;10358;49.590;11.030;2023-04-08T01:30:16;4.40;99.90
20398;DHT22;10358;49.590;11.030;2023-04-08T01:32:43;4.40;99.90
20398;DHT22;10358;49.590;11.030;2023-04-08T01:35:10;4.40;99.90
20398;DHT22;10358;49.590;11.030;2023-04-08T01:37:36;4.40;99.90
20398;DHT22;10358;49.590;11.030;2023-04-08T01:40:04;4.50;99.90
20398;DHT22;10358;49.590;11.030;2023-04-08T01:42:31;4.50;99.90
20398;DHT22;10358;49.590;11.030;2023-04-08T01:44:58;4.50;99.90
20398;DHT22;10358;49.590;11.030;2023-04-08T01:47:25;4.50;99.90
20398;DHT22;10358;49.590;11.030;2023-04-08T01:49:52;4.50;99.90
20398;DHT22;10358;49.590;11.030;2023-04-08T01:52:19;4.50;99.90
20398;DHT22;10358;49.590;11.030;2023-04-08T01:54:46;4.50;99.90
20398;DHT22;10358;49.590;11.030;2023-04-08T01:57:21;4.50;99.90
20398;DHT22;10358;49.590;11.030;2023-04-08T01:59:50;4.50;99.90
20398;DHT22;10358;49.590;11.030;2023-04-08T02:02:20;4.50;99.90
20398;DHT22;10358;49.590;11.030;2023-04-08T02:04:47;4.50;99.90
20398;DHT22;10358;49.590;11.030;2023-04-08T02:07:13;4.50;99.90
20398;DHT22;10358;49.590;11.030;2023-04-08T02:09:39;4.50;99.90
20398;DHT22;10358;49.590;11.030;2023-04-08T02:12:04;4.50;99.90
20398;DHT22;10358;49.590;11.030;2023-04-08T02:14:30;4.50;99.90
20398;DHT22;10358;49.590;11.030;2023-04-08T02:17:04;4.50;99.90
20398;DHT22;10358;49.590;11.030;2023-04-08T02:20:10;4.60;99.90
20398;DHT22;10358;49.590;11.030;2023-04-08T02:22:56;4.60;99.90
20398;DHT22;10358;49.590;11.030;2023-04-08T02:25:24;4.60;99.90
20398;DHT22;10358;49.590;11.030;2023-04-08T02:27:52;4.70;99.90
20398;DHT22;10358;49.590;11.030;2023-04-08T02:30:18;4.70;99.90
20398;DHT22;10358;49.590;11.030;2023-04-08T02:32:46;4.70;99.90
20398;DHT22;10358;49.590;11.030;2023-04-08T02:35:13;4.70;99.90
20398;DHT22;10358;49.590;11.030;2023-04-08T02:37:40;4.70;99.90
20398;DHT22;10358;49.590;11.030;2023-04-08T02:40:27;4.70;99.90
20398;DHT22;10358;49.590;11.030;2023-04-08T02:42:53;4.80;99.90
20398;DHT22;10358;49.590;11.030;2023-04-08T02:45:20;4.90;99.90
20398;DHT22;10358;49.590;11.030;2023-04-08T02:47:45;4.90;99.90
20398;DHT22;10358;49.590;11.030;2023-04-08T02:50:11;4.90;99.90
20398;DHT22;10358;49.590;11.030;2023-04-08T02:52:36;4.90;99.90
20398;DHT22;10358;49.590;11.030;2023-04-08T02:55:02;4.90;99.90
20398;DHT22;10358;49.590;11.030;2023-04-08T02:57:31;4.90;99.90
20398;DHT22;10358;49.590;11.030;2023-04-08T02:59:56;5.00;99.90
20398;DHT22;10358;49.590;11.030;2023-04-08T03:02:22;5.00;99.90
20398;DHT22;10358;49.590;11.030;2023-04-08T03:04:47;5.00;99.90
20398;DHT22;10358;49.590;11.030;2023-04-08T03:07:13;5.00;99.90
20398;DHT22;10358;49.590;11.030;2023-04-08T03:09:39;5.00;99.90
20398;DHT22;10358;49.590;11.030;2023-04-08T03:12:04;5.00;99.90
20398;DHT22;10358;49.590;11.030;2023-04-08T03:14:30;4.90;99.90
20398;DHT22;10358;49.590;11.030;2023-04-08T03:16:55;4.90;99.90
20398;DHT22;10358;49.590;11.030;2023-04-08T03:19:21;4.90;99.90
20398;DHT22;10358;49.590;11.030;2023-04-08T03:21:47;4.90;99.90
20398;DHT22;10358;49.590;11.030;2023-04-08T03:24:12;4.90;99.90
20398;DHT22;10358;49.590;11.030;2023-04-08T03:26:38;4.90;99.90
20398;DHT22;10358;49.590;11.030;2023-04-08T03:29:03;4.90;99.90
20398;DHT22;10358;49.590;11.030;2023-04-08T03:31:31;4.90;99.90
20398;DHT22;10358;49.590;11.030;2023-04-08T03:33:57;4.90;99.90
20398;DHT22;10358;49.590;11.030;2023-04-08T03:36:23;4.90;99.90
20398;DHT22;10358;49.590;11.030;2023-04-08T03:38:48;5.00;99.90
20398;DHT22;10358;49.590;11.030;2023-04-08T03:41:14;5.00;99.90
20398;DHT22;10358;49.590;11.030;2023-04-08T03:43:39;5.10;99.90
20398;DHT22;10358;49.590;11.030;2023-04-08T03:46:05;5.00;99.90
20398;DHT22;10358;49.590;11.030;2023-04-08T03:48:31;5.00;99.90
20398;DHT22;10358;49.590;11.030;2023-04-08T03:50:56;5.00;99.90
20398;DHT22;10358;49.590;11.030;2023-04-08T03:53:22;5.00;99.90
20398;DHT22;10358;49.590;11.030;2023-04-08T03:55:48;5.00;99.90
20398;DHT22;10358;49.590;11.030;2023-04-08T03:58:15;5.00;99.90
20398;DHT22;10358;49.590;11.030;2023-04-08T04:00:41;4.90;99.90
20398;DHT22;10358;49.590;11.030;2023-04-08T04:03:06;5.00;99.90
20398;DHT22;10358;49.590;11.030;2023-04-08T04:05:33;5.00;99.90
20398;DHT22;10358;49.590;11.030;2023-04-08T04:07:58;5.00;99.90
20398;DHT22;10358;49.590;11.030;2023-04-08T04:10:24;5.00;99.90
20398;DHT22;10358;49.590;11.030;2023-04-08T04:12:49;5.00;99.90
20398;DHT22;10358;49.590;11.030;2023-04-08T04:15:15;5.00;99.90
20398;DHT22;10358;49.590;11.030;2023-04-08T04:17:41;5.00;99.90
20398;DHT22;10358;49.590;11.030;2023-04-08T04:20:06;5.00;99.90
20398;DHT22;10358;49.590;11.030;2023-04-08T04:22:32;5.00;99.90
20398;DHT22;10358;49.590;11.030;2023-04-08T04:24:58;5.00;99.90
20398;DHT22;10358;49.590;11.030;2023-04-08T04:27:23;5.00;99.90
20398;DHT22;10358;49.590;11.030;2023-04-08T04:29:49;5.00;99.90
20398;DHT22;10358;49.590;11.030;2023-04-08T04:32:14;5.00;99.90
20398;DHT22;10358;49.590;11.030;2023-04-08T04:34:40;5.00;99.90
20398;DHT22;10358;49.590;11.030;2023-04-08T04:37:06;5.00;99.90
20398;DHT22;10358;49.590;11.030;2023-04-08T04:39:31;5.00;99.90
20398;DHT22;10358;49.590;11.030;2023-04-08T04:41:57;5.00;99.90
20398;DHT22;10358;49.590;11.030;2023-04-08T04:44:22;5.00;99.90
20398;DHT22;10358;49.590;11.030;2023-04-08T04:46:48;5.00;99.90
20398;DHT22;10358;49.590;11.030;2023-04-08T04:49:13;5.00;99.90
20398;DHT22;10358;49.590;11.030;2023-04-08T04:51:39;5.00;99.90
20398;DHT22;10358;49.590;11.030;2023-04-08T04:54:05;5.00;99.90
20398;DHT22;10358;49.590;11.030;2023-04-08T04:56:30;5.00;99.90
20398;DHT22;10358;49.590;11.030;2023-04-08T04:58:56;5.10;99.90
20398;DHT22;10358;49.590;11.030;2023-04-08T05:01:22;5.10;99.90
20398;DHT22;10358;49.590;11.030;2023-04-08T05:03:47;5.10;99.90
20398;DHT22;10358;49.590;11.030;2023-04-08T05:06:13;5.20;99.90
20398;DHT22;10358;49.590;11.030;2023-04-08T05:08:38;5.20;99.90
20398;DHT22;10358;49.590;11.030;2023-04-08T05:11:08;5.30;99.90
20398;DHT22;10358;49.590;11.030;2023-04-08T05:13:34;5.30;99.90
20398;DHT22;10358;49.590;11.030;2023-04-08T05:15:59;5.40;99.90
20398;DHT22;10358;49.590;11.030;2023-04-08T05:18:25;5.40;99.90
20398;DHT22;10358;49.590;11.030;2023-04-08T05:20:51;5.50;99.90
20398;DHT22;10358;49.590;11.030;2023-04-08T05:23:16;5.50;99.90
20398;DHT22;10358;49.590;11.030;2023-04-08T05:25:42;5.50;99.90
20398;DHT22;10358;49.590;11.030;2023-04-08T05:28:08;5.50;99.90
20398;DHT22;10358;49.590;11.030;2023-04-08T05:30:33;5.50;99.90
20398;DHT22;10358;49.590;11.030;2023-04-08T05:32:59;5.60;99.90
20398;DHT22;10358;49.590;11.030;2023-04-08T05:35:24;5.50;99.90
20398;DHT22;10358;49.590;11.030;2023-04-08T05:37:50;5.50;99.90
20398;DHT22;10358;49.590;11.030;2023-04-08T05:40:16;5.50;99.90
20398;DHT22;10358;49.590;11.030;2023-04-08T05:42:41;5.50;99.90
20398;DHT22;10358;49.590;11.030;2023-04-08T05:45:07;5.50;99.90
20398;DHT22;10358;49.590;11.030;2023-04-08T05:47:33;5.50;99.90
20398;DHT22;10358;49.590;11.030;2023-04-08T05:49:58;5.50;99.90
20398;DHT22;10358;49.590;11.030;2023-04-08T05:52:24;5.50;99.90
20398;DHT22;10358;49.590;11.030;2023-04-08T05:54:49;5.50;99.90
20398;DHT22;10358;49.590;11.030;2023-04-08T05:57:15;5.50;99.90
20398;DHT22;10358;49.590;11.030;2023-04-08T05:59:41;5.40;99.90
20398;DHT22;10358;49.590;11.030;2023-04-08T06:02:06;5.40;99.90
20398;DHT22;10358;49.590;11.030;2023-04-08T06:04:32;5.40;99.90
20398;DHT22;10358;49.590;11.030;2023-04-08T06:06:58;5.50;99.90
20398;DHT22;10358;49.590;11.030;2023-04-08T06:09:25;5.50;99.90
20398;DHT22;10358;49.590;11.030;2023-04-08T06:11:51;5.50;99.90
20398;DHT22;10358;49.590;11.030;2023-04-08T06:14:16;5.50;99.90
20398;DHT22;10358;49.590;11.030;2023-04-08T06:16:42;5.50;99.90
20398;DHT22;10358;49.590;11.030;2023-04-08T06:19:08;5.50;99.90
20398;DHT22;10358;49.590;11.030;2023-04-08T06:21:33;5.40;99.90
20398;DHT22;10358;49.590;11.030;2023-04-08T06:23:59;5.40;99.90
20398;DHT22;10358;49.590;11.030;2023-04-08T06:26:25;5.30;99.90
20398;DHT22;10358;49.590;11.030;2023-04-08T06:28:50;5.30;99.90
20398;DHT22;10358;49.590;11.030;2023-04-08T06:31:16;5.20;99.90
20398;DHT22;10358;49.590;11.030;2023-04-08T06:33:42;5.10;99.90
20398;DHT22;10358;49.590;11.030;2023-04-08T06:36:07;5.00;99.90
20398;DHT22;10358;49.590;11.030;2023-04-08T06:38:33;5.00;99.90
20398;DHT22;10358;49.590;11.030;2023-04-08T06:41:05;5.10;99.90
20398;DHT22;10358;49.590;11.030;2023-04-08T06:43:32;5.10;99.90
20398;DHT22;10358;49.590;11.030;2023-04-08T06:45:57;5.20;99.90
20398;DHT22;10358;49.590;11.030;2023-04-08T06:48:24;5.20;99.90
20398;DHT22;10358;49.590;11.030;2023-04-08T06:50:55;5.20;99.90
20398;DHT22;10358;49.590;11.030;2023-04-08T06:53:22;5.20;99.90
20398;DHT22;10358;49.590;11.030;2023-04-08T06:55:48;5.20;99.90
20398;DHT22;10358;49.590;11.030;2023-04-08T06:58:14;5.10;99.90
20398;DHT22;10358;49.590;11.030;2023-04-08T07:00:41;5.00;99.90
20398;DHT22;10358;49.590;11.030;2023-04-08T07:03:06;4.90;99.90
20398;DHT22;10358;49.590;11.030;2023-04-08T07:05:34;4.80;99.90
20398;DHT22;10358;49.590;11.030;2023-04-08T07:08:01;4.90;99.90
20398;DHT22;10358;49.590;11.030;2023-04-08T07:10:27;4.80;99.90
20398;DHT22;10358;49.590;11.030;2023-04-08T07:12:53;4.80;99.90
20398;DHT22;10358;49.590;11.030;2023-04-08T07:15:18;4.70;99.90
20398;DHT22;10358;49.590;11.030;2023-04-08T07:17:44;4.70;99.90
20398;DHT22;10358;49.590;11.030;2023-04-08T07:20:11;4.70;99.90
20398;DHT22;10358;49.590;11.030;2023-04-08T07:22:38;4.70;99.90
20398;DHT22;10358;49.590;11.030;2023-04-08T07:25:04;4.60;99.90
20398;DHT22;10358;49.590;11.030;2023-04-08T07:27:30;4.70;99.90
20398;DHT22;10358;49.590;11.030;2023-04-08T07:29:56;4.80;99.90
20398;DHT22;10358;49.590;11.030;2023-04-08T07:32:22;4.70;99.90
20398;DHT22;10358;49.590;11.030;2023-04-08T07:34:48;4.70;99.90
20398;DHT22;10358;49.590;11.030;2023-04-08T07:37:13;4.80;99.90
20398;DHT22;10358;49.590;11.030;2023-04-08T07:39:39;4.80;99.90
20398;DHT22;10358;49.590;11.030;2023-04-08T07:42:04;4.80;99.90
20398;DHT22;10358;49.590;11.030;2023-04-08T07:44:30;4.70;99.90
20398;DHT22;10358;49.590;11.030;2023-04-08T07:46:55;4.80;99.90
20398;DHT22;10358;49.590;11.030;2023-04-08T07:49:21;4.80;99.90
20398;DHT22;10358;49.590;11.030;2023-04-08T07:51:47;4.90;99.90
20398;DHT22;10358;49.590;11.030;2023-04-08T07:54:12;5.00;99.90
20398;DHT22;10358;49.590;11.030;2023-04-08T07:56:42;5.00;99.90
20398;DHT22;10358;49.590;11.030;2023-04-08T07:59:09;5.10;99.90
20398;DHT22;10358;49.590;11.030;2023-04-08T08:01:35;5.10;99.90
20398;DHT22;10358;49.590;11.030;2023-04-08T08:04:01;5.20;99.90
20398;DHT22;10358;49.590;11.030;2023-04-08T08:06:26;5.20;99.90
20398;DHT22;10358;49.590;11.030;2023-04-08T08:08:52;5.20;99.90
20398;DHT22;10358;49.590;11.030;2023-04-08T08:11:18;5.20;99.90
20398;DHT22;10358;49.590;11.030;2023-04-08T08:13:43;5.20;99.90
20398;DHT22;10358;49.590;11.030;2023-04-08T08:16:09;5.10;99.90
20398;DHT22;10358;49.590;11.030;2023-04-08T08:18:36;5.10;99.90
20398;DHT22;10358;49.590;11.030;2023-04-08T08:21:02;5.10;99.90
20398;DHT22;10358;49.590;11.030;2023-04-08T08:23:28;5.00;99.90
20398;DHT22;10358;49.590;11.030;2023-04-08T08:26:01;5.00;99.90
20398;DHT22;10358;49.590;11.030;2023-04-08T08:28:27;5.10;99.90
20398;DHT22;10358;49.590;11.030;2023-04-08T08:30:52;5.10;99.90
20398;DHT22;10358;49.590;11.030;2023-04-08T08:33:18;5.10;99.90
20398;DHT22;10358;49.590;11.030;2023-04-08T08:35:43;5.20;99.90
20398;DHT22;10358;49.590;11.030;2023-04-08T08:38:09;5.20;99.90
20398;DHT22;10358;49.590;11.030;2023-04-08T08:40:35;5.30;99.90
20398;DHT22;10358;49.590;11.030;2023-04-08T08:43:01;5.30;99.90
20398;DHT22;10358;49.590;11.030;2023-04-08T08:45:26;5.30;99.90
20398;DHT22;10358;49.590;11.030;2023-04-08T08:47:52;5.30;99.90
20398;DHT22;10358;49.590;11.030;2023-04-08T08:50:18;5.30;99.90
20398;DHT22;10358;49.590;11.030;2023-04-08T08:52:52;5.30;99.90
20398;DHT22;10358;49.590;11.030;2023-04-08T08:55:19;5.30;99.90
20398;DHT22;10358;49.590;11.030;2023-04-08T08:57:45;5.30;99.90
20398;DHT22;10358;49.590;11.030;2023-04-08T09:00:11;5.40;99.90
20398;DHT22;10358;49.590;11.030;2023-04-08T09:02:40;5.40;99.90
20398;DHT22;10358;49.590;11.030;2023-04-08T09:05:06;5.40;99.90
20398;DHT22;10358;49.590;11.030;2023-04-08T09:07:35;5.40;99.90
20398;DHT22;10358;49.590;11.030;2023-04-08T09:10:01;5.30;99.90
20398;DHT22;10358;49.590;11.030;2023-04-08T09:12:27;5.30;99.90
20398;DHT22;10358;49.590;11.030;2023-04-08T09:15:05;5.20;99.90
20398;DHT22;10358;49.590;11.030;2023-04-08T09:17:38;5.20;99.90
20398;DHT22;10358;49.590;11.030;2023-04-08T09:20:09;5.20;99.90
20398;DHT22;10358;49.590;11.030;2023-04-08T09:22:59;5.30;99.90
20398;DHT22;10358;49.590;11.030;2023-04-08T09:25:34;5.40;99.90
20398;DHT22;10358;49.590;11.030;2023-04-08T09:28:01;5.40;99.90
20398;DHT22;10358;49.590;11.030;2023-04-08T09:30:27;5.40;99.90
20398;DHT22;10358;49.590;11.030;2023-04-08T09:32:57;5.40;99.90
20398;DHT22;10358;49.590;11.030;2023-04-08T09:35:23;5.50;99.90
20398;DHT22;10358;49.590;11.030;2023-04-08T09:37:50;5.50;99.90
20398;DHT22;10358;49.590;11.030;2023-04-08T09:40:16;5.50;99.90
20398;DHT22;10358;49.590;11.030;2023-04-08T09:42:47;5.60;99.90
20398;DHT22;10358;49.590;11.030;2023-04-08T09:45:15;5.70;99.90
20398;DHT22;10358;49.590;11.030;2023-04-08T09:48:16;5.70;99.90
20398;DHT22;10358;49.590;11.030;2023-04-08T09:50:44;5.70;99.90
20398;DHT22;10358;49.590;11.030;2023-04-08T09:53:34;5.70;99.90
20398;DHT22;10358;49.590;11.030;2023-04-08T09:56:01;5.80;99.90
20398;DHT22;10358;49.590;11.030;2023-04-08T09:58:51;5.90;99.90
20398;DHT22;10358;49.590;11.030;2023-04-08T10:01:23;6.10;99.90
20398;DHT22;10358;49.590;11.030;2023-04-08T10:03:54;6.20;99.90
20398;DHT22;10358;49.590;11.030;2023-04-08T10:06:27;6.40;99.90
20398;DHT22;10358;49.590;11.030;2023-04-08T10:08:55;6.50;99.90
20398;DHT22;10358;49.590;11.030;2023-04-08T10:11:20;6.50;99.90
20398;DHT22;10358;49.590;11.030;2023-04-08T10:13:46;6.30;99.90
20398;DHT22;10358;49.590;11.030;2023-04-08T10:16:22;6.20;99.90
20398;DHT22;10358;49.590;11.030;2023-04-08T10:18:50;6.20;99.90
20398;DHT22;10358;49.590;11.030;2023-04-08T10:23:58;6.30;99.90
20398;DHT22;10358;49.590;11.030;2023-04-08T10:26:36;6.40;99.90
20398;DHT22;10358;49.590;11.030;2023-04-08T10:31:46;6.50;99.90
20398;DHT22;10358;49.590;11.030;2023-04-08T10:34:19;6.50;99.90
20398;DHT22;10358;49.590;11.030;2023-04-08T10:36:46;6.50;99.90
20398;DHT22;10358;49.590;11.030;2023-04-08T10:39:12;6.60;99.90
20398;DHT22;10358;49.590;11.030;2023-04-08T10:41:42;6.80;99.90
20398;DHT22;10358;49.590;11.030;2023-04-08T10:44:34;7.00;99.90
20398;DHT22;10358;49.590;11.030;2023-04-08T10:47:00;7.20;99.90
20398;DHT22;10358;49.590;11.030;2023-04-08T10:49:33;7.30;99.90
20398;DHT22;10358;49.590;11.030;2023-04-08T10:51:59;7.50;99.90
20398;DHT22;10358;49.590;11.030;2023-04-08T10:54:25;7.60;99.90
20398;DHT22;10358;49.590;11.030;2023-04-08T10:56:51;7.80;99.90
20398;DHT22;10358;49.590;11.030;2023-04-08T10:59:28;7.70;99.90
20398;DHT22;10358;49.590;11.030;2023-04-08T11:01:54;7.70;99.90
20398;DHT22;10358;49.590;11.030;2023-04-08T11:04:19;7.80;99.90
20398;DHT22;10358;49.590;11.030;2023-04-08T11:06:47;7.70;99.90
20398;DHT22;10358;49.590;11.030;2023-04-08T11:09:14;7.80;99.90
20398;DHT22;10358;49.590;11.030;2023-04-08T11:11:42;8.10;99.90
20398;DHT22;10358;49.590;11.030;2023-04-08T11:14:08;8.30;99.90
20398;DHT22;10358;49.590;11.030;2023-04-08T11:16:35;8.30;99.90
20398;DHT22;10358;49.590;11.030;2023-04-08T11:19:02;8.40;99.90
20398;DHT22;10358;49.590;11.030;2023-04-08T11:21:30;8.30;99.90
20398;DHT22;10358;49.590;11.030;2023-04-08T11:23:56;8.50;99.90
20398;DHT22;10358;49.590;11.030;2023-04-08T11:26:22;8.60;99.90
20398;DHT22;10358;49.590;11.030;2023-04-08T11:28:48;8.60;99.90
20398;DHT22;10358;49.590;11.030;2023-04-08T11:31:16;8.50;99.90
20398;DHT22;10358;49.590;11.030;2023-04-08T11:33:49;8.30;99.90
20398;DHT22;10358;49.590;11.030;2023-04-08T11:36:17;8.00;99.90
20398;DHT22;10358;49.590;11.030;2023-04-08T11:38:43;8.10;99.90
20398;DHT22;10358;49.590;11.030;2023-04-08T11:41:09;8.30;99.90
20398;DHT22;10358;49.590;11.030;2023-04-08T11:43:36;8.50;99.90
20398;DHT22;10358;49.590;11.030;2023-04-08T11:46:11;8.60;99.90
20398;DHT22;10358;49.590;11.030;2023-04-08T11:48:37;8.70;99.90
20398;DHT22;10358;49.590;11.030;2023-04-08T11:51:04;8.80;99.90
20398;DHT22;10358;49.590;11.030;2023-04-08T11:53:33;8.70;99.90
20398;DHT22;10358;49.590;11.030;2023-04-08T11:56:18;8.70;99.90
20398;DHT22;10358;49.590;11.030;2023-04-08T11:58:44;8.50;99.90
20398;DHT22;10358;49.590;11.030;2023-04-08T12:01:10;8.40;99.90
20398;DHT22;10358;49.590;11.030;2023-04-08T12:03:35;8.50;99.90
20398;DHT22;10358;49.590;11.030;2023-04-08T12:06:01;8.60;99.90
20398;DHT22;10358;49.590;11.030;2023-04-08T12:08:27;8.80;99.90
20398;DHT22;10358;49.590;11.030;2023-04-08T12:10:52;8.90;99.90
20398;DHT22;10358;49.590;11.030;2023-04-08T12:13:18;8.90;99.90
20398;DHT22;10358;49.590;11.030;2023-04-08T12:15:43;8.70;99.90
20398;DHT22;10358;49.590;11.030;2023-04-08T12:18:09;8.80;99.90
20398;DHT22;10358;49.590;11.030;2023-04-08T12:20:35;8.90;99.90
20398;DHT22;10358;49.590;11.030;2023-04-08T12:23:00;9.00;99.90
20398;DHT22;10358;49.590;11.030;2023-04-08T12:25:26;8.90;99.90
20398;DHT22;10358;49.590;11.030;2023-04-08T12:27:52;8.80;99.90
20398;DHT22;10358;49.590;11.030;2023-04-08T12:30:17;8.80;99.90
20398;DHT22;10358;49.590;11.030;2023-04-08T12:32:43;8.80;99.90
20398;DHT22;10358;49.590;11.030;2023-04-08T12:35:11;8.80;99.90
20398;DHT22;10358;49.590;11.030;2023-04-08T12:37:37;8.90;99.90
20398;DHT22;10358;49.590;11.030;2023-04-08T12:40:03;8.80;99.90
20398;DHT22;10358;49.590;11.030;2023-04-08T12:42:28;8.80;99.90
20398;DHT22;10358;49.590;11.030;2023-04-08T12:44:54;8.70;99.90
20398;DHT22;10358;49.590;11.030;2023-04-08T12:47:20;8.70;99.90
20398;DHT22;10358;49.590;11.030;2023-04-08T12:49:46;8.70;99.90
20398;DHT22;10358;49.590;11.030;2023-04-08T12:52:11;8.50;99.90
20398;DHT22;10358;49.590;11.030;2023-04-08T12:54:37;8.60;99.90
20398;DHT22;10358;49.590;11.030;2023-04-08T12:57:03;8.70;99.90
20398;DHT22;10358;49.590;11.030;2023-04-08T12:59:28;8.80;99.90
20398;DHT22;10358;49.590;11.030;2023-04-08T13:01:54;9.10;99.90
20398;DHT22;10358;49.590;11.030;2023-04-08T13:04:20;9.40;99.90
20398;DHT22;10358;49.590;11.030;2023-04-08T13:06:45;9.60;99.90
20398;DHT22;10358;49.590;11.030;2023-04-08T13:09:11;9.70;99.90
20398;DHT22;10358;49.590;11.030;2023-04-08T13:11:36;9.80;99.90
20398;DHT22;10358;49.590;11.030;2023-04-08T13:14:02;10.00;99.90
20398;DHT22;10358;49.590;11.030;2023-04-08T13:16:28;10.00;99.90
20398;DHT22;10358;49.590;11.030;2023-04-08T13:18:53;10.00;99.90
20398;DHT22;10358;49.590;11.030;2023-04-08T13:21:19;9.90;99.90
20398;DHT22;10358;49.590;11.030;2023-04-08T13:23:45;9.90;99.90
20398;DHT22;10358;49.590;11.030;2023-04-08T13:26:11;10.10;99.90
20398;DHT22;10358;49.590;11.030;2023-04-08T13:28:36;10.00;99.90
20398;DHT22;10358;49.590;11.030;2023-04-08T13:31:02;10.20;99.90
20398;DHT22;10358;49.590;11.030;2023-04-08T13:33:27;10.30;99.90
20398;DHT22;10358;49.590;11.030;2023-04-08T13:35:53;10.50;99.90
20398;DHT22;10358;49.590;11.030;2023-04-08T13:38:19;10.60;99.90
20398;DHT22;10358;49.590;11.030;2023-04-08T13:40:44;10.80;99.90
20398;DHT22;10358;49.590;11.030;2023-04-08T13:43:10;10.90;99.90
20398;DHT22;10358;49.590;11.030;2023-04-08T13:45:35;10.90;99.90
20398;DHT22;10358;49.590;11.030;2023-04-08T13:48:01;10.90;99.90
20398;DHT22;10358;49.590;11.030;2023-04-08T13:50:26;10.80;99.90
20398;DHT22;10358;49.590;11.030;2023-04-08T13:52:52;10.70;99.90
20398;DHT22;10358;49.590;11.030;2023-04-08T13:55:17;10.80;99.90
20398;DHT22;10358;49.590;11.030;2023-04-08T13:57:43;10.90;99.90
20398;DHT22;10358;49.590;11.030;2023-04-08T14:00:08;10.90;99.90
20398;DHT22;10358;49.590;11.030;2023-04-08T14:02:35;11.20;99.90
20398;DHT22;10358;49.590;11.030;2023-04-08T14:05:00;11.50;99.90
20398;DHT22;10358;49.590;11.030;2023-04-08T14:07:26;11.70;99.90
20398;DHT22;10358;49.590;11.030;2023-04-08T14:09:51;11.90;99.90
20398;DHT22;10358;49.590;11.030;2023-04-08T14:12:17;12.00;99.90
20398;DHT22;10358;49.590;11.030;2023-04-08T14:14:42;12.00;99.90
20398;DHT22;10358;49.590;11.030;2023-04-08T14:17:08;11.90;99.90
20398;DHT22;10358;49.590;11.030;2023-04-08T14:19:33;11.90;99.20
20398;DHT22;10358;49.590;11.030;2023-04-08T14:21:59;11.90;98.90
20398;DHT22;10358;49.590;11.030;2023-04-08T14:24:25;11.90;97.90
20398;DHT22;10358;49.590;11.030;2023-04-08T14:26:51;11.70;97.80
20398;DHT22;10358;49.590;11.030;2023-04-08T14:29:16;11.70;97.50
20398;DHT22;10358;49.590;11.030;2023-04-08T14:31:42;11.60;97.50
20398;DHT22;10358;49.590;11.030;2023-04-08T14:34:07;11.50;97.80
20398;DHT22;10358;49.590;11.030;2023-04-08T14:36:33;11.40;97.60
20398;DHT22;10358;49.590;11.030;2023-04-08T14:38:59;11.30;97.50
20398;DHT22;10358;49.590;11.030;2023-04-08T14:41:24;11.10;98.00
20398;DHT22;10358;49.590;11.030;2023-04-08T14:43:51;11.00;98.70
20398;DHT22;10358;49.590;11.030;2023-04-08T14:46:18;10.90;99.60
20398;DHT22;10358;49.590;11.030;2023-04-08T14:48:44;10.80;99.80
20398;DHT22;10358;49.590;11.030;2023-04-08T14:51:09;10.70;99.90
20398;DHT22;10358;49.590;11.030;2023-04-08T14:53:35;10.60;99.90
20398;DHT22;10358;49.590;11.030;2023-04-08T14:56:00;10.60;99.90
20398;DHT22;10358;49.590;11.030;2023-04-08T14:58:26;10.60;99.90
20398;DHT22;10358;49.590;11.030;2023-04-08T15:00:51;10.60;99.90
20398;DHT22;10358;49.590;11.030;2023-04-08T15:03:17;10.60;99.90
20398;DHT22;10358;49.590;11.030;2023-04-08T15:05:43;10.60;99.90
20398;DHT22;10358;49.590;11.030;2023-04-08T15:08:09;10.60;99.90
20398;DHT22;10358;49.590;11.030;2023-04-08T15:10:35;10.70;99.90
20398;DHT22;10358;49.590;11.030;2023-04-08T15:13:00;10.60;99.90
20398;DHT22;10358;49.590;11.030;2023-04-08T15:15:26;10.60;99.90
20398;DHT22;10358;49.590;11.030;2023-04-08T15:17:52;10.60;99.90
20398;DHT22;10358;49.590;11.030;2023-04-08T15:20:17;10.50;99.90
20398;DHT22;10358;49.590;11.030;2023-04-08T15:22:44;10.50;99.90
20398;DHT22;10358;49.590;11.030;2023-04-08T15:25:10;10.60;99.90
20398;DHT22;10358;49.590;11.030;2023-04-08T15:27:35;10.60;99.90
20398;DHT22;10358;49.590;11.030;2023-04-08T15:30:02;10.50;99.90
20398;DHT22;10358;49.590;11.030;2023-04-08T15:32:28;10.40;99.90
20398;DHT22;10358;49.590;11.030;2023-04-08T15:34:53;10.40;99.90
20398;DHT22;10358;49.590;11.030;2023-04-08T15:37:20;10.30;99.90